Terminal Aerodrome Forecast
Issued by NWS Norman, OK

Home | Current Version | Previous Version | Text Only | Print | Product List | Glossary On
Versions: 1 2 3 4 5 6 7 8 9 10 11 12 13 14
000
FTUS44 KOUN 231132
TAFSPS
TAF
KSPS 231132Z 2312/2412 13008KT P6SM SCT100 BKN250
     FM232000 02018G29KT P6SM SCT040 BKN250 PROB30 2400/2405 3SM
      TSRA OVC030CB
     FM240500 04014KT P6SM -RA BKN040
      TEMPO 2405/2409 2SM TSRA OVC025CB=

USA.gov is the U.S. government's official web portal to all federal, state and local government web resources and services.